Time;durP1;ratioP1;P1;durP2;ratioP2;P2;SDS_P1;SDS_P2;PMS_P1;PMS_P2;Temp;Humidity;BMP_temperature;BMP_pressure;BME280_temperature;BME280_humidity;BME280_pressure;Samples;Min_cycle;Max_cycle;Signal;HPM_P1;HPM_P2
2023/01/31 00:00:29;;;;;;;7.28;1.48;;;;;;;;;;4985453;28;20103;-82
2023/01/31 00:02:54;;;;;;;7.72;2.38;;;;;;;;;;5001249;28;20477;-83
2023/01/31 00:05:20;;;;;;;6.80;1.70;;;;;;;;;;5007726;28;20029;-82
2023/01/31 00:07:46;;;;;;;6.50;1.70;;;;;;;;;;5005959;28;20038;-83
2023/01/31 00:10:12;;;;;;;8.55;1.52;;;;;;;;;;4988469;28;20034;-83
2023/01/31 00:12:37;;;;;;;8.48;1.70;;;;;;;;;;5003883;28;20056;-83
2023/01/31 00:15:03;;;;;;;8.45;1.55;;;;;;;;;;5006158;28;20026;-83
2023/01/31 00:17:29;;;;;;;8.00;1.70;;;;;;;;;;4998633;28;20027;-81
2023/01/31 00:19:54;;;;;;;5.47;1.48;;;;;;;;;;5002419;28;20033;-83
2023/01/31 00:22:19;;;;;;;6.70;1.40;;;;;;;;;;5006333;28;20029;-83
2023/01/31 00:24:45;;;;;;;7.05;1.50;;;;;;;;;;5001889;28;20096;-83
2023/01/31 00:27:10;;;;;;;4.95;1.48;;;;;;;;;;4984620;28;20482;-81
2023/01/31 00:29:35;;;;;;;8.05;1.80;;;;;;;;;;5006202;28;20095;-82
2023/01/31 00:32:02;;;;;;;4.55;1.40;;;;;;;;;;5003094;28;20088;-83
2023/01/31 00:34:28;;;;;;;8.55;1.38;;;;;;;;;;4994955;28;20106;-83
2023/01/31 00:36:53;;;;;;;5.88;1.25;;;;;;;;;;4981717;28;20113;-83
2023/01/31 00:39:19;;;;;;;10.38;1.80;;;;;;;;;;4989188;28;20065;-83
2023/01/31 00:41:44;;;;;;;7.75;1.60;;;;;;;;;;4991056;28;20029;-83
2023/01/31 00:44:09;;;;;;;8.00;1.10;;;;;;;;;;5005392;28;20056;-83
2023/01/31 00:46:35;;;;;;;6.32;1.38;;;;;;;;;;4987913;28;20034;-83
2023/01/31 00:49:01;;;;;;;7.38;2.05;;;;;;;;;;4998926;28;20117;-83
2023/01/31 00:51:26;;;;;;;5.90;1.45;;;;;;;;;;5007502;28;20026;-83
2023/01/31 00:53:52;;;;;;;6.45;1.52;;;;;;;;;;5005377;28;20551;-83
2023/01/31 00:56:22;;;;;;;8.52;1.60;;;;;;;;;;5003773;28;20084;-83
2023/01/31 00:58:48;;;;;;;5.43;1.77;;;;;;;;;;4989061;28;20017;-84
2023/01/31 01:01:17;;;;;;;7.68;1.52;;;;;;;;;;4982839;28;20096;-81
2023/01/31 01:03:43;;;;;;;3.80;1.17;;;;;;;;;;5001743;28;20041;-83
2023/01/31 01:06:10;;;;;;;4.32;1.33;;;;;;;;;;5006464;28;20501;-83
2023/01/31 01:08:37;;;;;;;7.40;1.50;;;;;;;;;;5003742;28;20064;-84
2023/01/31 01:11:07;;;;;;;4.30;1.40;;;;;;;;;;5003901;28;20094;-84
2023/01/31 01:13:33;;;;;;;4.75;1.13;;;;;;;;;;4988836;28;20034;-83
2023/01/31 01:16:20;;;;;;;6.75;1.42;;;;;;;;;;5001184;28;20034;-83
2023/01/31 01:18:48;;;;;;;6.43;1.27;;;;;;;;;;5000383;28;20021;-83
2023/01/31 01:21:16;;;;;;;6.97;1.38;;;;;;;;;;4984698;28;20079;-84
2023/01/31 01:23:41;;;;;;;8.65;1.70;;;;;;;;;;5001449;28;20038;-83
2023/01/31 01:26:33;;;;;;;7.32;1.73;;;;;;;;;;4985513;28;20042;-83
2023/01/31 01:29:00;;;;;;;7.57;1.50;;;;;;;;;;4991540;28;20095;-80
2023/01/31 01:31:28;;;;;;;9.27;1.88;;;;;;;;;;5005350;28;20462;-81
2023/01/31 01:34:05;;;;;;;6.05;1.67;;;;;;;;;;5007007;28;20033;-82
2023/01/31 01:36:33;;;;;;;4.68;1.23;;;;;;;;;;4987319;28;20032;-83
2023/01/31 01:38:59;;;;;;;6.25;1.00;;;;;;;;;;5007797;28;20033;-81
2023/01/31 01:41:25;;;;;;;5.65;1.23;;;;;;;;;;4990222;28;20036;-83
2023/01/31 01:43:52;;;;;;;8.75;1.98;;;;;;;;;;4984715;28;20421;-81
2023/01/31 01:46:39;;;;;;;6.93;2.00;;;;;;;;;;4985430;28;20569;-83
2023/01/31 01:49:33;;;;;;;6.90;1.77;;;;;;;;;;5005451;28;20087;-83
2023/01/31 01:52:04;;;;;;;7.78;1.27;;;;;;;;;;5009027;28;20026;-83
2023/01/31 01:54:38;;;;;;;6.05;1.40;;;;;;;;;;5008588;28;20490;-83
2023/01/31 01:57:06;;;;;;;9.43;1.55;;;;;;;;;;5004723;28;20041;-83
2023/01/31 01:59:41;;;;;;;7.95;1.52;;;;;;;;;;4987424;28;20037;-84
2023/01/31 02:02:07;;;;;;;5.68;1.55;;;;;;;;;;4993142;28;20041;-84
2023/01/31 02:04:38;;;;;;;7.95;1.98;;;;;;;;;;5004268;28;20355;-84
2023/01/31 02:07:04;;;;;;;10.25;2.05;;;;;;;;;;5007083;28;20691;-84
2023/01/31 02:09:55;;;;;;;8.63;1.98;;;;;;;;;;4995466;28;20037;-80
2023/01/31 02:12:21;;;;;;;8.27;2.00;;;;;;;;;;5003256;28;20524;-83
2023/01/31 02:14:47;;;;;;;8.80;1.58;;;;;;;;;;5006966;28;20025;-84
2023/01/31 02:17:14;;;;;;;5.47;1.52;;;;;;;;;;5005913;28;20500;-82
2023/01/31 02:19:49;;;;;;;7.60;1.77;;;;;;;;;;4983638;28;20812;-83
2023/01/31 02:22:27;;;;;;;6.75;1.48;;;;;;;;;;5008031;28;20604;-84
2023/01/31 02:25:11;;;;;;;7.78;1.75;;;;;;;;;;5009929;28;20036;-84
2023/01/31 02:28:04;;;;;;;7.78;1.75;;;;;;;;;;5006460;28;20033;-81
2023/01/31 02:31:19;;;;;;;8.27;1.58;;;;;;;;;;5001284;28;20033;-84
2023/01/31 02:34:17;;;;;;;7.90;1.85;;;;;;;;;;4986125;28;20489;-83
2023/01/31 02:37:13;;;;;;;8.88;2.00;;;;;;;;;;4991378;28;20116;-84
2023/01/31 02:40:18;;;;;;;8.95;2.13;;;;;;;;;;5006341;28;20462;-83
2023/01/31 02:43:05;;;;;;;11.35;2.38;;;;;;;;;;5003384;28;20394;-83
2023/01/31 02:46:00;;;;;;;6.28;2.08;;;;;;;;;;5001517;28;20038;-83
2023/01/31 02:48:54;;;;;;;7.43;2.17;;;;;;;;;;4985120;28;20037;-81
2023/01/31 02:51:24;;;;;;;5.85;2.40;;;;;;;;;;4960686;28;20470;-84
2023/01/31 02:53:58;;;;;;;6.63;2.10;;;;;;;;;;5010452;28;20041;-81
2023/01/31 02:56:36;;;;;;;9.80;2.47;;;;;;;;;;5005120;28;20072;-83
2023/01/31 02:59:18;;;;;;;8.95;2.67;;;;;;;;;;4987203;28;20124;-81
2023/01/31 03:01:50;;;;;;;10.85;3.80;;;;;;;;;;5000806;28;21468;-82
2023/01/31 03:04:15;;;;;;;10.77;3.38;;;;;;;;;;5008443;28;20026;-83
2023/01/31 03:06:53;;;;;;;10.57;3.50;;;;;;;;;;4994464;28;20092;-82
2023/01/31 03:09:37;;;;;;;8.02;3.25;;;;;;;;;;4985238;28;20025;-82
2023/01/31 03:12:32;;;;;;;7.85;2.45;;;;;;;;;;4999438;28;20037;-82
2023/01/31 03:18:35;;;;;;;10.48;3.30;;;;;;;;;;4998978;28;20096;-82
2023/01/31 03:21:08;;;;;;;9.93;3.28;;;;;;;;;;5001230;28;20034;-83
2023/01/31 03:23:36;;;;;;;8.80;3.07;;;;;;;;;;5000267;28;20073;-83
2023/01/31 03:26:03;;;;;;;13.27;3.42;;;;;;;;;;4980366;28;20124;-79
2023/01/31 03:28:34;;;;;;;9.57;3.70;;;;;;;;;;4985297;28;20025;-83
2023/01/31 03:31:15;;;;;;;10.90;3.22;;;;;;;;;;5005821;28;20466;-82
2023/01/31 03:33:47;;;;;;;12.25;3.40;;;;;;;;;;5001690;28;20029;-81
2023/01/31 03:36:38;;;;;;;10.30;3.50;;;;;;;;;;5001947;28;20022;-82
2023/01/31 03:39:29;;;;;;;7.13;3.20;;;;;;;;;;5001995;28;20498;-80
2023/01/31 03:42:06;;;;;;;14.20;3.75;;;;;;;;;;5006235;28;20545;-82
2023/01/31 03:44:55;;;;;;;9.82;4.10;;;;;;;;;;5000138;28;20022;-81
2023/01/31 03:47:26;;;;;;;11.18;4.03;;;;;;;;;;5003141;28;20446;-82
2023/01/31 03:49:54;;;;;;;10.02;4.10;;;;;;;;;;5001754;28;20040;-83
2023/01/31 03:52:28;;;;;;;9.95;4.38;;;;;;;;;;5001152;28;20034;-78
2023/01/31 03:55:01;;;;;;;10.85;3.63;;;;;;;;;;4982686;28;20379;-83
2023/01/31 03:57:39;;;;;;;;;;;;;;;;;;4985475;28;20030;-83
2023/01/31 04:00:08;;;;;;;7.70;3.13;;;;;;;;;;4984383;28;20060;-83
2023/01/31 04:02:36;;;;;;;10.80;3.70;;;;;;;;;;5000229;28;20494;-82
2023/01/31 04:05:08;;;;;;;9.55;3.63;;;;;;;;;;4989466;28;20406;-82
2023/01/31 04:07:35;;;;;;;15.63;4.83;;;;;;;;;;5002345;28;20034;-83
2023/01/31 04:10:01;;;;;;;16.40;5.75;;;;;;;;;;5003864;28;20026;-82
2023/01/31 04:12:26;;;;;;;9.32;4.05;;;;;;;;;;5003756;28;20038;-83
2023/01/31 04:14:52;;;;;;;11.40;4.22;;;;;;;;;;4998471;28;20034;-81
2023/01/31 04:17:17;;;;;;;14.57;4.32;;;;;;;;;;5003319;28;20036;-82
2023/01/31 04:19:43;;;;;;;13.35;4.05;;;;;;;;;;5005064;28;20425;-83
2023/01/31 04:22:08;;;;;;;10.77;3.97;;;;;;;;;;5006437;28;20037;-82
2023/01/31 04:24:33;;;;;;;12.35;4.32;;;;;;;;;;4985852;28;20030;-82
2023/01/31 04:26:59;;;;;;;10.65;4.45;;;;;;;;;;4996587;28;20038;-82
2023/01/31 04:29:24;;;;;;;11.57;4.22;;;;;;;;;;5007142;28;20029;-82
2023/01/31 04:31:50;;;;;;;11.65;4.40;;;;;;;;;;4998865;28;20026;-83
2023/01/31 04:34:15;;;;;;;12.35;4.57;;;;;;;;;;4984916;28;20026;-83
2023/01/31 04:36:41;;;;;;;15.27;4.40;;;;;;;;;;4999596;28;20033;-82
2023/01/31 04:39:06;;;;;;;10.15;3.92;;;;;;;;;;5004269;28;20053;-83
2023/01/31 04:41:31;;;;;;;14.35;4.55;;;;;;;;;;4984687;28;20030;-81
2023/01/31 04:43:57;;;;;;;11.73;4.40;;;;;;;;;;5000969;28;20034;-81
2023/01/31 04:46:22;;;;;;;12.23;5.20;;;;;;;;;;4988134;28;20119;-79
2023/01/31 04:48:48;;;;;;;11.10;4.43;;;;;;;;;;4991927;28;20061;-82
2023/01/31 04:51:13;;;;;;;13.93;4.63;;;;;;;;;;5008209;28;20025;-82
2023/01/31 04:53:38;;;;;;;11.73;4.30;;;;;;;;;;4989336;28;20036;-80
2023/01/31 04:56:04;;;;;;;10.85;4.28;;;;;;;;;;5007735;28;20113;-83
2023/01/31 04:58:30;;;;;;;13.68;4.68;;;;;;;;;;4983993;28;20033;-80
2023/01/31 05:00:55;;;;;;;12.55;4.65;;;;;;;;;;4986306;28;20083;-78
2023/01/31 05:03:21;;;;;;;11.50;4.57;;;;;;;;;;4987359;28;20045;-83
2023/01/31 05:05:47;;;;;;;12.30;4.43;;;;;;;;;;5005787;28;20041;-83
2023/01/31 05:08:13;;;;;;;14.18;4.28;;;;;;;;;;4988886;28;20034;-82
2023/01/31 05:10:39;;;;;;;11.35;4.28;;;;;;;;;;4983037;28;20419;-81
2023/01/31 05:13:05;;;;;;;14.73;4.53;;;;;;;;;;4998714;28;20771;-82
2023/01/31 05:15:31;;;;;;;13.13;4.70;;;;;;;;;;5005100;28;20057;-82
2023/01/31 05:18:01;;;;;;;11.60;4.25;;;;;;;;;;4980279;28;20026;-82
2023/01/31 05:20:33;;;;;;;12.48;4.55;;;;;;;;;;4991066;28;20065;-81
2023/01/31 05:22:59;;;;;;;13.53;4.83;;;;;;;;;;4983573;28;20029;-82
2023/01/31 05:25:25;;;;;;;12.30;4.68;;;;;;;;;;5002637;28;20467;-82
2023/01/31 05:27:51;;;;;;;12.35;4.88;;;;;;;;;;4995155;28;20059;-82
2023/01/31 05:30:17;;;;;;;17.48;4.72;;;;;;;;;;4979810;28;20049;-81
2023/01/31 05:32:44;;;;;;;10.52;4.82;;;;;;;;;;5000707;28;20034;-80
2023/01/31 05:35:11;;;;;;;15.30;5.40;;;;;;;;;;4996137;28;20378;-82
2023/01/31 05:37:36;;;;;;;11.68;5.03;;;;;;;;;;4994835;28;20038;-79
2023/01/31 05:40:02;;;;;;;12.80;4.95;;;;;;;;;;4998828;28;20041;-82
2023/01/31 05:42:27;;;;;;;12.82;4.82;;;;;;;;;;4998285;28;20025;-81
2023/01/31 05:44:53;;;;;;;14.02;5.25;;;;;;;;;;5006196;28;20108;-82
2023/01/31 05:47:18;;;;;;;13.60;4.85;;;;;;;;;;5001281;28;20692;-82
2023/01/31 05:49:43;;;;;;;10.70;4.93;;;;;;;;;;5002378;28;20093;-82
2023/01/31 05:52:09;;;;;;;11.98;4.55;;;;;;;;;;5000463;28;20044;-79
2023/01/31 05:54:34;;;;;;;14.85;5.13;;;;;;;;;;4985881;28;20025;-82
2023/01/31 05:57:00;;;;;;;14.00;4.93;;;;;;;;;;4997112;28;20501;-82
2023/01/31 05:59:25;;;;;;;14.60;5.40;;;;;;;;;;4996263;28;20041;-80
2023/01/31 06:01:50;;;;;;;16.35;5.63;;;;;;;;;;5001129;28;20379;-81
2023/01/31 06:04:16;;;;;;;15.18;5.28;;;;;;;;;;5000808;28;20026;-81
2023/01/31 06:06:41;;;;;;;10.38;5.03;;;;;;;;;;4995429;28;20026;-78
2023/01/31 06:09:07;;;;;;;10.23;5.38;;;;;;;;;;4999205;28;21867;-81
2023/01/31 06:11:33;;;;;;;14.27;5.50;;;;;;;;;;4990350;28;20025;-82
2023/01/31 06:13:58;;;;;;;13.60;5.28;;;;;;;;;;4977824;28;20497;-82
2023/01/31 06:16:24;;;;;;;15.43;5.65;;;;;;;;;;4996008;28;20037;-82
2023/01/31 06:18:49;;;;;;;12.93;5.47;;;;;;;;;;4999742;28;20029;-81
2023/01/31 06:21:15;;;;;;;13.77;5.13;;;;;;;;;;5000214;28;20718;-82
2023/01/31 06:23:44;;;;;;;12.25;5.85;;;;;;;;;;4998725;28;20033;-82
2023/01/31 06:26:10;;;;;;;12.15;5.00;;;;;;;;;;5000777;28;20504;-82
2023/01/31 06:28:36;;;;;;;12.43;5.32;;;;;;;;;;5000267;28;20083;-81
2023/01/31 06:31:06;;;;;;;9.88;4.90;;;;;;;;;;5005307;28;20029;-82
2023/01/31 06:33:31;;;;;;;16.63;5.70;;;;;;;;;;4999574;28;20391;-79
2023/01/31 06:36:00;;;;;;;15.93;5.88;;;;;;;;;;5002277;28;20026;-81
2023/01/31 06:38:27;;;;;;;13.07;6.30;;;;;;;;;;5000708;28;20105;-81
2023/01/31 06:40:52;;;;;;;14.25;5.28;;;;;;;;;;5008316;28;20481;-81
2023/01/31 06:43:18;;;;;;;16.13;5.78;;;;;;;;;;4993423;28;20026;-82
2023/01/31 06:45:43;;;;;;;13.15;5.90;;;;;;;;;;5004583;28;20033;-81
2023/01/31 06:48:10;;;;;;;12.27;5.60;;;;;;;;;;5011399;28;20069;-82
2023/01/31 06:50:35;;;;;;;13.32;5.72;;;;;;;;;;5010212;28;20095;-82
2023/01/31 06:53:00;;;;;;;13.55;5.72;;;;;;;;;;4988530;28;20030;-82
2023/01/31 06:55:26;;;;;;;10.30;5.10;;;;;;;;;;5006677;28;20038;-82
2023/01/31 06:57:51;;;;;;;12.23;5.38;;;;;;;;;;4999527;28;20386;-81
2023/01/31 07:00:18;;;;;;;13.43;5.30;;;;;;;;;;5002319;28;20057;-81
2023/01/31 07:02:44;;;;;;;12.35;5.32;;;;;;;;;;5006052;28;20076;-78
2023/01/31 07:05:10;;;;;;;12.35;5.32;;;;;;;;;;4990946;28;20087;-81
2023/01/31 07:07:35;;;;;;;13.65;5.45;;;;;;;;;;5002878;28;20034;-82
2023/01/31 07:10:00;;;;;;;12.05;5.28;;;;;;;;;;5005762;28;20482;-82
2023/01/31 07:12:26;;;;;;;13.43;5.07;;;;;;;;;;5004905;28;20037;-82
2023/01/31 07:14:52;;;;;;;14.77;5.28;;;;;;;;;;4989573;28;20018;-82
2023/01/31 07:17:19;;;;;;;9.02;4.32;;;;;;;;;;4992444;28;20033;-81
2023/01/31 07:19:45;;;;;;;11.90;4.68;;;;;;;;;;5007219;28;20064;-82
2023/01/31 07:22:10;;;;;;;15.48;5.10;;;;;;;;;;4993150;28;20038;-82
2023/01/31 07:24:36;;;;;;;14.40;4.82;;;;;;;;;;5005062;28;20037;-79
2023/01/31 07:27:01;;;;;;;13.38;5.30;;;;;;;;;;4983347;28;20036;-82
2023/01/31 07:29:27;;;;;;;18.10;5.38;;;;;;;;;;4998723;28;20683;-82
2023/01/31 07:31:53;;;;;;;14.18;5.90;;;;;;;;;;5007637;28;20478;-82
2023/01/31 07:34:21;;;;;;;15.15;5.15;;;;;;;;;;5004342;28;20490;-82
2023/01/31 07:36:50;;;;;;;13.85;4.78;;;;;;;;;;5002265;28;20025;-82
2023/01/31 07:39:16;;;;;;;13.98;4.65;;;;;;;;;;5008069;28;20025;-82
2023/01/31 07:41:41;;;;;;;13.20;5.32;;;;;;;;;;4991109;28;20026;-82
2023/01/31 07:44:09;;;;;;;10.60;4.85;;;;;;;;;;5008682;28;20099;-82
2023/01/31 07:46:35;;;;;;;10.48;4.93;;;;;;;;;;5005589;28;20036;-82
2023/01/31 07:49:01;;;;;;;14.77;5.18;;;;;;;;;;5003413;28;20025;-82
2023/01/31 07:51:26;;;;;;;10.40;4.60;;;;;;;;;;4993510;28;20378;-82
2023/01/31 07:53:51;;;;;;;10.02;5.07;;;;;;;;;;5011986;28;20440;-81
2023/01/31 07:56:19;;;;;;;13.40;5.00;;;;;;;;;;5010894;28;20115;-82
2023/01/31 07:58:46;;;;;;;13.50;5.40;;;;;;;;;;5010237;28;20117;-82
2023/01/31 08:04:09;;;;;;;12.07;4.67;;;;;;;;;;5006639;28;20092;-82
2023/01/31 08:06:35;;;;;;;14.07;5.03;;;;;;;;;;5005070;28;20497;-82
2023/01/31 08:09:01;;;;;;;10.68;4.82;;;;;;;;;;5004284;28;20056;-82
2023/01/31 08:11:27;;;;;;;11.50;4.85;;;;;;;;;;4989761;28;20053;-82
2023/01/31 08:13:52;;;;;;;16.63;5.65;;;;;;;;;;4996651;28;20513;-79
2023/01/31 08:16:19;;;;;;;9.18;4.53;;;;;;;;;;4987203;28;20398;-82
2023/01/31 08:18:46;;;;;;;20.73;7.43;;;;;;;;;;5005771;28;20029;-82
2023/01/31 08:21:12;;;;;;;15.60;5.25;;;;;;;;;;4998167;28;20031;-82
2023/01/31 08:23:39;;;;;;;15.10;5.85;;;;;;;;;;5011209;28;20030;-82
2023/01/31 08:26:09;;;;;;;12.90;5.43;;;;;;;;;;4999440;28;20525;-82
2023/01/31 08:28:35;;;;;;;12.00;4.65;;;;;;;;;;5003200;28;20087;-81
2023/01/31 08:31:00;;;;;;;10.80;4.75;;;;;;;;;;5003644;28;20026;-82
2023/01/31 08:33:26;;;;;;;10.70;4.40;;;;;;;;;;5000379;28;20113;-82
2023/01/31 08:35:51;;;;;;;12.75;4.88;;;;;;;;;;4990669;28;20397;-82
2023/01/31 08:38:17;;;;;;;15.40;5.15;;;;;;;;;;5006287;28;20029;-82
2023/01/31 08:40:42;;;;;;;10.52;5.13;;;;;;;;;;4989160;28;20029;-82
2023/01/31 08:43:08;;;;;;;13.98;5.65;;;;;;;;;;4990263;28;20076;-82
2023/01/31 08:45:34;;;;;;;16.45;6.97;;;;;;;;;;5002840;28;20034;-82
2023/01/31 08:48:00;;;;;;;16.52;5.82;;;;;;;;;;5001777;28;20417;-81
2023/01/31 08:50:28;;;;;;;11.35;4.80;;;;;;;;;;4998644;28;20030;-83
2023/01/31 08:52:59;;;;;;;13.23;4.40;;;;;;;;;;5002794;28;20576;-83
2023/01/31 08:55:26;;;;;;;9.68;4.32;;;;;;;;;;5010421;28;20029;-82
2023/01/31 08:57:52;;;;;;;13.02;4.43;;;;;;;;;;4988703;28;20030;-83
2023/01/31 09:00:19;;;;;;;9.43;4.10;;;;;;;;;;5004776;28;20105;-82
2023/01/31 09:02:50;;;;;;;10.27;3.88;;;;;;;;;;5006316;28;20089;-83
2023/01/31 09:05:15;;;;;;;10.70;3.97;;;;;;;;;;5003088;28;20076;-83
2023/01/31 09:07:41;;;;;;;11.48;4.25;;;;;;;;;;5007016;28;20536;-81
2023/01/31 09:10:06;;;;;;;13.23;6.00;;;;;;;;;;4993556;28;20034;-83
2023/01/31 09:12:32;;;;;;;11.02;4.35;;;;;;;;;;5006864;28;20029;-82
2023/01/31 09:14:58;;;;;;;12.68;5.78;;;;;;;;;;5008168;28;20067;-82
2023/01/31 09:17:23;;;;;;;14.18;5.00;;;;;;;;;;4999157;28;20542;-83
2023/01/31 09:19:49;;;;;;;12.13;5.00;;;;;;;;;;5000459;28;20347;-81
2023/01/31 09:22:14;;;;;;;11.70;4.50;;;;;;;;;;5005772;28;20520;-83
2023/01/31 09:24:40;;;;;;;13.15;4.20;;;;;;;;;;5004461;28;20057;-82
2023/01/31 09:27:05;;;;;;;11.88;4.07;;;;;;;;;;4989985;28;20055;-83
2023/01/31 09:29:31;;;;;;;9.85;4.13;;;;;;;;;;5004428;28;20034;-83
2023/01/31 09:31:57;;;;;;;9.52;3.55;;;;;;;;;;5004991;28;20033;-82
2023/01/31 09:34:23;;;;;;;10.60;4.20;;;;;;;;;;5005872;28;20018;-82
2023/01/31 09:36:48;;;;;;;10.30;3.85;;;;;;;;;;4986311;28;20497;-84
2023/01/31 09:39:14;;;;;;;9.80;3.90;;;;;;;;;;5009572;28;20033;-83
2023/01/31 09:41:47;;;;;;;9.85;4.35;;;;;;;;;;5006371;28;20616;-82
2023/01/31 09:44:18;;;;;;;11.32;4.43;;;;;;;;;;5003529;28;20026;-83
2023/01/31 09:46:49;;;;;;;14.10;3.92;;;;;;;;;;5006472;28;20034;-83
2023/01/31 09:49:21;;;;;;;11.40;3.95;;;;;;;;;;5010094;28;20053;-83
2023/01/31 09:51:51;;;;;;;9.32;3.50;;;;;;;;;;4993780;28;20030;-82
2023/01/31 09:54:27;;;;;;;11.05;3.85;;;;;;;;;;5010135;28;20013;-83
2023/01/31 09:57:02;;;;;;;12.68;3.95;;;;;;;;;;5012739;28;20026;-83
2023/01/31 09:59:37;;;;;;;7.72;3.22;;;;;;;;;;5008006;28;20515;-83
2023/01/31 10:02:14;;;;;;;8.07;3.22;;;;;;;;;;5007041;28;20026;-83
2023/01/31 10:05:04;;;;;;;11.38;3.88;;;;;;;;;;5004806;28;20072;-83
2023/01/31 10:07:40;;;;;;;10.48;3.42;;;;;;;;;;5006219;28;20025;-84
2023/01/31 10:10:27;;;;;;;15.70;4.93;;;;;;;;;;4991310;28;20125;-83
2023/01/31 10:13:02;;;;;;;11.45;3.95;;;;;;;;;;5003205;28;20029;-83
2023/01/31 10:15:51;;;;;;;9.80;3.50;;;;;;;;;;4990781;28;20034;-82
2023/01/31 10:18:24;;;;;;;8.68;3.53;;;;;;;;;;5010188;28;20032;-83
2023/01/31 10:20:55;;;;;;;9.43;3.83;;;;;;;;;;4997073;28;20939;-83
2023/01/31 10:23:30;;;;;;;8.70;3.92;;;;;;;;;;5011550;28;20496;-83
2023/01/31 10:26:06;;;;;;;9.55;3.75;;;;;;;;;;5011634;28;20033;-84
2023/01/31 10:28:46;;;;;;;9.88;3.83;;;;;;;;;;4994082;28;20021;-83
2023/01/31 10:31:26;;;;;;;7.43;3.60;;;;;;;;;;4992109;28;21380;-84
2023/01/31 10:33:59;;;;;;;11.48;3.78;;;;;;;;;;4989927;28;20401;-83
2023/01/31 10:36:30;;;;;;;10.93;4.20;;;;;;;;;;4987795;28;20095;-83
2023/01/31 10:39:36;;;;;;;9.93;3.97;;;;;;;;;;5005345;28;20498;-83
2023/01/31 10:42:37;;;;;;;10.73;4.10;;;;;;;;;;4997848;28;20029;-83
2023/01/31 10:45:16;;;;;;;13.93;5.38;;;;;;;;;;5000798;28;20046;-83
2023/01/31 10:47:52;;;;;;;14.52;5.07;;;;;;;;;;5002119;28;20025;-83
2023/01/31 10:50:39;;;;;;;13.15;4.45;;;;;;;;;;5004616;28;20049;-84
2023/01/31 10:53:34;;;;;;;10.15;4.20;;;;;;;;;;5003259;28;20494;-84
2023/01/31 10:56:10;;;;;;;12.68;4.45;;;;;;;;;;5001127;28;20026;-83
2023/01/31 10:58:36;;;;;;;12.70;4.47;;;;;;;;;;5013884;28;20028;-83
2023/01/31 11:01:07;;;;;;;11.40;5.15;;;;;;;;;;4996038;28;20504;-84
2023/01/31 11:03:32;;;;;;;14.45;5.38;;;;;;;;;;4998277;28;20030;-83
2023/01/31 11:05:58;;;;;;;12.00;5.05;;;;;;;;;;4992590;28;20030;-80
2023/01/31 11:08:33;;;;;;;10.20;5.32;;;;;;;;;;5005300;28;20041;-82
2023/01/31 11:11:06;;;;;;;10.40;4.80;;;;;;;;;;4994232;28;20081;-84
2023/01/31 11:13:31;;;;;;;9.05;4.57;;;;;;;;;;4994459;28;20474;-83
2023/01/31 11:15:57;;;;;;;11.25;4.95;;;;;;;;;;5007635;28;20037;-84
2023/01/31 11:18:33;;;;;;;11.98;5.15;;;;;;;;;;5000916;28;20033;-84
2023/01/31 11:21:00;;;;;;;13.40;5.20;;;;;;;;;;5006110;28;20386;-84
2023/01/31 11:23:29;;;;;;;12.77;4.82;;;;;;;;;;5011670;28;20030;-84
2023/01/31 11:25:55;;;;;;;14.90;4.40;;;;;;;;;;4990582;28;20084;-83
2023/01/31 11:28:38;;;;;;;13.48;4.65;;;;;;;;;;5001795;28;20474;-83
2023/01/31 11:31:07;;;;;;;12.93;4.35;;;;;;;;;;5002467;28;20028;-84
2023/01/31 11:33:38;;;;;;;7.63;3.80;;;;;;;;;;4988972;28;20478;-83
2023/01/31 11:36:15;;;;;;;12.43;4.30;;;;;;;;;;5010284;28;20042;-84
2023/01/31 11:38:41;;;;;;;9.07;4.15;;;;;;;;;;5006314;28;20385;-84
2023/01/31 11:41:28;;;;;;;9.43;3.65;;;;;;;;;;5005987;28;20041;-79
2023/01/31 11:44:15;;;;;;;5.50;3.17;;;;;;;;;;4994183;28;20128;-83
2023/01/31 11:46:43;;;;;;;8.88;3.65;;;;;;;;;;4989442;28;20026;-83
2023/01/31 11:49:11;;;;;;;9.18;3.95;;;;;;;;;;5006602;28;20021;-84
2023/01/31 11:51:39;;;;;;;12.15;3.72;;;;;;;;;;5009031;28;20029;-81
2023/01/31 11:54:05;;;;;;;10.77;3.83;;;;;;;;;;5006431;28;20056;-84
2023/01/31 11:56:36;;;;;;;11.15;4.53;;;;;;;;;;5010509;28;20030;-84
2023/01/31 11:59:07;;;;;;;9.63;4.20;;;;;;;;;;5009262;28;20025;-85
2023/01/31 12:01:43;;;;;;;7.40;3.65;;;;;;;;;;5003179;28;20030;-83
2023/01/31 12:04:16;;;;;;;12.18;4.43;;;;;;;;;;4985078;28;20053;-83
2023/01/31 12:06:55;;;;;;;7.53;3.88;;;;;;;;;;4998816;28;20032;-83
2023/01/31 12:09:23;;;;;;;10.20;3.70;;;;;;;;;;5005510;28;20120;-84
2023/01/31 12:12:01;;;;;;;11.45;4.40;;;;;;;;;;5008473;28;20026;-84
2023/01/31 12:14:38;;;;;;;9.77;4.00;;;;;;;;;;4991304;28;20034;-84
2023/01/31 12:17:04;;;;;;;8.70;4.10;;;;;;;;;;5001745;28;20033;-84
2023/01/31 12:19:45;;;;;;;12.07;4.35;;;;;;;;;;5006830;28;20033;-82
2023/01/31 12:22:29;;;;;;;10.00;3.75;;;;;;;;;;4991216;28;20038;-83
2023/01/31 12:24:54;;;;;;;11.00;4.20;;;;;;;;;;4997368;28;20549;-85
2023/01/31 12:27:32;;;;;;;10.13;4.30;;;;;;;;;;5002522;28;20110;-83
2023/01/31 12:30:08;;;;;;;9.80;4.30;;;;;;;;;;4993748;28;20088;-83
2023/01/31 12:32:45;;;;;;;12.35;4.38;;;;;;;;;;4989394;28;20470;-84
2023/01/31 12:35:29;;;;;;;11.57;4.00;;;;;;;;;;5004529;28;20025;-84
2023/01/31 12:38:32;;;;;;;7.82;3.63;;;;;;;;;;4992350;28;20425;-85
2023/01/31 12:41:22;;;;;;;7.07;3.83;;;;;;;;;;5006461;28;20108;-83
2023/01/31 12:44:14;;;;;;;14.02;4.20;;;;;;;;;;4998846;28;20643;-85
2023/01/31 12:46:59;;;;;;;8.65;3.63;;;;;;;;;;5007000;28;20022;-86
2023/01/31 12:49:55;;;;;;;10.30;3.47;;;;;;;;;;5003323;28;20394;-83
2023/01/31 12:52:40;;;;;;;12.70;3.90;;;;;;;;;;5003782;28;21262;-84
2023/01/31 12:55:12;;;;;;;8.55;3.67;;;;;;;;;;4988380;28;20022;-84
2023/01/31 12:58:30;;;;;;;7.43;3.13;;;;;;;;;;5004360;28;20056;-84
2023/01/31 13:00:58;;;;;;;10.07;3.58;;;;;;;;;;4993224;28;20032;-85
2023/01/31 13:03:33;;;;;;;5.35;2.75;;;;;;;;;;5007396;28;20037;-82
2023/01/31 13:06:15;;;;;;;9.15;3.25;;;;;;;;;;5007330;28;20393;-84
2023/01/31 13:08:54;;;;;;;9.37;3.03;;;;;;;;;;5004827;28;20030;-84
2023/01/31 13:11:26;;;;;;;8.85;3.30;;;;;;;;;;5003459;28;20060;-85
2023/01/31 13:14:15;;;;;;;7.90;3.40;;;;;;;;;;5005108;28;20041;-84
2023/01/31 13:16:44;;;;;;;9.13;3.55;;;;;;;;;;5000155;28;20493;-84
2023/01/31 13:19:36;;;;;;;8.50;2.58;;;;;;;;;;4999711;28;20036;-84
2023/01/31 13:22:10;;;;;;;7.03;2.80;;;;;;;;;;5001155;28;20433;-85
2023/01/31 13:24:40;;;;;;;7.38;2.92;;;;;;;;;;4989734;28;20022;-81
2023/01/31 13:27:20;;;;;;;10.75;3.08;;;;;;;;;;5004640;28;20037;-84
2023/01/31 13:29:56;;;;;;;8.10;2.67;;;;;;;;;;5007772;28;20409;-85
2023/01/31 13:32:42;;;;;;;7.53;2.67;;;;;;;;;;5003590;28;20675;-85
2023/01/31 13:35:23;;;;;;;7.55;2.58;;;;;;;;;;5005120;28;20747;-85
2023/01/31 13:37:55;;;;;;;13.27;3.15;;;;;;;;;;5006003;28;20104;-85
2023/01/31 13:40:24;;;;;;;10.00;2.88;;;;;;;;;;5004697;28;20033;-83
2023/01/31 13:42:52;;;;;;;4.82;2.25;;;;;;;;;;5006411;28;20080;-85
2023/01/31 13:45:30;;;;;;;6.88;2.40;;;;;;;;;;5009040;28;20033;-85
2023/01/31 13:48:08;;;;;;;9.80;2.45;;;;;;;;;;5004197;28;20052;-84
2023/01/31 13:50:41;;;;;;;11.00;2.83;;;;;;;;;;4985726;28;20494;-83
2023/01/31 13:53:15;;;;;;;6.45;2.40;;;;;;;;;;4998991;28;20037;-84
2023/01/31 13:55:44;;;;;;;9.07;2.60;;;;;;;;;;5004740;28;20036;-84
2023/01/31 13:58:27;;;;;;;11.98;2.80;;;;;;;;;;4983313;28;20032;-84
2023/01/31 14:01:06;;;;;;;13.98;4.13;;;;;;;;;;4988871;28;20033;-84
2023/01/31 14:07:01;;;;;;;12.70;2.33;;;;;;;;;;5006260;28;20493;-84
2023/01/31 14:09:26;;;;;;;5.32;1.80;;;;;;;;;;5005902;28;20532;-83
2023/01/31 14:11:55;;;;;;;14.85;2.85;;;;;;;;;;4994318;28;20030;-83
2023/01/31 14:14:37;;;;;;;7.30;2.45;;;;;;;;;;4988671;28;20397;-81
2023/01/31 14:17:26;;;;;;;11.63;2.28;;;;;;;;;;5002785;28;20116;-83
2023/01/31 14:19:51;;;;;;;11.07;2.30;;;;;;;;;;4940511;28;20398;-83
2023/01/31 14:22:23;;;;;;;7.47;2.40;;;;;;;;;;5008665;28;20036;-84
2023/01/31 14:24:48;;;;;;;8.82;2.25;;;;;;;;;;5010200;28;20065;-84
2023/01/31 14:27:30;;;;;;;9.32;2.35;;;;;;;;;;5002418;28;20025;-84
2023/01/31 14:30:05;;;;;;;5.65;2.00;;;;;;;;;;5000443;28;20022;-84
2023/01/31 14:32:48;;;;;;;9.90;2.25;;;;;;;;;;5002905;28;20136;-81
2023/01/31 14:35:13;;;;;;;8.27;2.10;;;;;;;;;;4998886;28;20037;-84
2023/01/31 14:38:09;;;;;;;11.13;2.47;;;;;;;;;;4981169;28;20450;-80
2023/01/31 14:40:46;;;;;;;5.45;1.80;;;;;;;;;;5002112;28;20033;-85
2023/01/31 14:43:34;;;;;;;12.52;2.53;;;;;;;;;;5005656;28;20025;-85
2023/01/31 14:46:05;;;;;;;8.73;2.08;;;;;;;;;;4979916;28;20087;-83
2023/01/31 14:48:52;;;;;;;7.78;2.00;;;;;;;;;;5003697;28;20030;-83
2023/01/31 14:51:59;;;;;;;6.28;1.95;;;;;;;;;;4996511;28;20268;-84
2023/01/31 14:54:49;;;;;;;10.80;2.35;;;;;;;;;;5004089;28;20026;-79
2023/01/31 14:57:22;;;;;;;12.80;2.20;;;;;;;;;;4980158;28;20034;-83
2023/01/31 15:00:14;;;;;;;9.38;2.05;;;;;;;;;;5002162;28;20130;-80
2023/01/31 15:02:52;;;;;;;7.03;2.13;;;;;;;;;;5003079;28;20137;-84
2023/01/31 15:05:36;;;;;;;6.85;2.20;;;;;;;;;;5004076;28;20038;-84
2023/01/31 15:08:04;;;;;;;6.93;2.33;;;;;;;;;;4999345;28;20040;-84
2023/01/31 15:11:02;;;;;;;9.02;1.90;;;;;;;;;;4990638;28;20037;-84
2023/01/31 15:13:42;;;;;;;8.23;2.00;;;;;;;;;;4995508;28;20359;-82